Christos Xxvii — SV4484 — position and weather

sailwx.info

Track history (hours):
 
Tides and Currents Weather Stations Pressure Air Temp Water Temp Dewpoint Dewpoint Depression Visibility Wind Speed Wind Dir Waves Ship Positions

Christos Xxvii

Last reported at 2017-Sep-19 15:54 UTC. Time now 2017-Sep-20 00:26 UTC.
Position N 37°57' E 023°34'.

Length 35 m; draft 4 m.

Type: Tug. MMSI: 237194900.

Date/timePositionNaut miles runAvg speedWind from/ knotsBaromVisibWave heightAir tempDewpointWater temp
2017-Sep-19 15:54N 37°57' E 023°34'3 8.6
2017-Sep-19 15:30N 37°56' E 023°38'0 0.3
2017-Sep-19 15:01N 37°56' E 023°38'0 0.1
2017-Sep-19 14:31N 37°56' E 023°38'0 0.0
2017-Sep-19 14:01N 37°56' E 023°38'0 0.0
2017-Sep-19 13:30N 37°56' E 023°38'0 0.0
2017-Sep-19 13:01N 37°56' E 023°38'2 4.9
2017-Sep-19 12:31N 37°57' E 023°35'2 3.5
2017-Sep-19 12:01N 37°56' E 023°37'2 3.2
2017-Sep-19 11:31N 37°57' E 023°35'1 2.5
2017-Sep-19 11:01N 37°57' E 023°34'2 3.6
2017-Sep-19 10:31N 37°59' E 023°33'3 6.1
2017-Sep-19 10:00N 38°01' E 023°36'1 1.3
2017-Sep-19 09:31N 38°01' E 023°35'3 6.2
2017-Sep-19 09:01N 37°58' E 023°33'1 2.4
2017-Sep-19 08:31N 37°57' E 023°34'0 0.0
2017-Sep-19 08:01N 37°57' E 023°34'0 0.0
2017-Sep-19 07:31N 37°57' E 023°34'0 0.0
2017-Sep-19 07:01N 37°57' E 023°34'0 0.0
2017-Sep-19 06:30N 37°57' E 023°34'0 0.0
2017-Sep-19 06:01N 37°57' E 023°34'0 0.0
2017-Sep-19 05:30N 37°57' E 023°34'0 0.0
2017-Sep-19 05:01N 37°57' E 023°34'0 0.0
2017-Sep-19 04:31N 37°57' E 023°34'0 0.0
2017-Sep-19 04:00N 37°57' E 023°34'0 0.0
2017-Sep-18 18:41N 37°57' E 023°34'1 3.0
2017-Sep-18 18:31N 37°58' E 023°33'4 8.8
2017-Sep-18 18:00N 38°02' E 023°36'0 0.1
2017-Sep-18 17:30N 38°02' E 023°36'0 0.5
2017-Sep-18 17:01N 38°02' E 023°35'1 2.0
2017-Sep-18 16:30N 38°01' E 023°34'3 7.0
2017-Sep-18 16:01N 37°58' E 023°33'1 1.3
2017-Sep-18 15:31N 37°57' E 023°34'0 0.0
2017-Sep-18 15:01N 37°57' E 023°34'0 0.0
2017-Sep-18 14:30N 37°57' E 023°34'0 0.0
2017-Sep-18 14:01N 37°57' E 023°34'0 0.0
2017-Sep-18 13:30N 37°57' E 023°34'0 0.0
2017-Sep-18 13:00N 37°57' E 023°34'0 0.0
2017-Sep-18 12:30N 37°57' E 023°34'0 0.0
2017-Sep-18 12:01N 37°57' E 023°34'0 0.0
2017-Sep-18 11:31N 37°57' E 023°34'3 6.9
2017-Sep-18 11:01N 37°56' E 023°38'1 2.1
2017-Sep-18 10:31N 37°56' E 023°37'0 0.3
2017-Sep-18 10:01N 37°57' E 023°36'2 4.6
2017-Sep-18 09:31N 37°57' E 023°34'0 0.0
2017-Sep-18 09:00N 37°57' E 023°34'0 0.0
2017-Sep-18 08:31N 37°57' E 023°34'0 0.0
2017-Sep-18 08:01N 37°57' E 023°34'0 0.0
2017-Sep-18 07:30N 37°57' E 023°34'1 2.8
2017-Sep-18 07:01N 37°56' E 023°35'1 1.9
2017-Sep-18 06:30N 37°57' E 023°34'1 1.4
2017-Sep-18 06:01N 37°57' E 023°33'0 0.0
2017-Sep-18 05:31N 37°57' E 023°33'0 0.0
2017-Sep-18 05:01N 37°57' E 023°33'1 1.2
2017-Sep-18 04:30N 37°57' E 023°34'0 0.0
2017-Sep-18 04:00N 37°57' E 023°34'  
2017-Sep-15 21:22N 37°57' E 023°34'1 2.4
2017-Sep-15 21:00N 37°57' E 023°35'1 2.5
2017-Sep-15 20:30N 37°56' E 023°35'0 0.9
2017-Sep-15 20:00N 37°56' E 023°35'0 0.3
2017-Sep-15 19:30N 37°56' E 023°34'0 0.4
2017-Sep-15 19:00N 37°56' E 023°35'2 3.6
2017-Sep-15 18:30N 37°57' E 023°34'0 0.0
2017-Sep-15 18:00N 37°57' E 023°34'0 0.0
2017-Sep-15 17:30N 37°57' E 023°34'0 0.0
2017-Sep-15 17:00N 37°57' E 023°34'0 0.0
2017-Sep-15 16:30N 37°57' E 023°34'0 0.0
2017-Sep-15 16:00N 37°57' E 023°34'0 0.0
2017-Sep-15 15:30N 37°57' E 023°34'0 0.0
2017-Sep-15 15:00N 37°57' E 023°34'0 0.0
2017-Sep-15 14:30N 37°57' E 023°34'0 0.0
2017-Sep-15 14:00N 37°57' E 023°34'0 0.0
2017-Sep-15 13:30N 37°57' E 023°34'0 0.0
2017-Sep-15 13:00N 37°57' E 023°34'0 0.0
2017-Sep-15 12:30N 37°57' E 023°34'0 0.0
2017-Sep-15 12:00N 37°57' E 023°34'0 0.0
2017-Sep-15 11:30N 37°57' E 023°34'0 0.3
2017-Sep-15 11:00N 37°57' E 023°34'4 8.6
2017-Sep-15 10:30N 38°01' E 023°35'0 0.1
2017-Sep-15 10:00N 38°01' E 023°35'4 8.4
2017-Sep-15 09:30N 37°57' E 023°34'0 0.1
2017-Sep-15 09:00N 37°57' E 023°34'0 0.0
2017-Sep-15 08:30N 37°57' E 023°34'0 0.0
2017-Sep-15 08:00N 37°57' E 023°34'0 0.0
2017-Sep-15 07:30N 37°57' E 023°34'0 0.0
2017-Sep-15 07:00N 37°57' E 023°34'0 0.0
2017-Sep-15 06:30N 37°57' E 023°34'0 0.0
2017-Sep-15 06:00N 37°57' E 023°34'0 0.0
2017-Sep-15 05:30N 37°57' E 023°34'0 0.0
2017-Sep-15 05:00N 37°57' E 023°34'0 0.0
2017-Sep-15 04:30N 37°57' E 023°34'0 0.0
2017-Sep-15 04:00N 37°57' E 023°34'0 0.0
2017-Sep-14 17:36N 37°57' E 023°34'0 0.0
2017-Sep-14 17:30N 37°57' E 023°34'3 6.3
2017-Sep-14 17:00N 37°56' E 023°37'0 0.1
2017-Sep-14 16:30N 37°56' E 023°37'0 0.0
2017-Sep-14 16:00N 37°56' E 023°37'3 6.4
2017-Sep-14 15:30N 37°57' E 023°34'0 0.0
2017-Sep-14 15:00N 37°57' E 023°34'0 0.0
2017-Sep-14 14:30N 37°57' E 023°34'0 0.0
2017-Sep-14 14:00N 37°57' E 023°34'0 0.0
2017-Sep-14 13:30N 37°57' E 023°34'0 0.0
2017-Sep-14 13:00N 37°57' E 023°34'0 0.0
2017-Sep-14 12:30N 37°57' E 023°34'510.1
2017-Sep-14 12:00N 38°02' E 023°31'1 1.6
2017-Sep-14 11:30N 38°01' E 023°31'4 8.6
2017-Sep-14 11:00N 37°57' E 023°34'0 0.0
2017-Sep-14 10:30N 37°57' E 023°34'0 0.0
2017-Sep-14 10:00N 37°57' E 023°34'0 0.0
2017-Sep-14 09:30N 37°57' E 023°34'0 0.0
2017-Sep-14 09:00N 37°57' E 023°34'0 0.0
2017-Sep-14 08:30N 37°57' E 023°34'0 0.0
2017-Sep-14 08:00N 37°57' E 023°34'0 1.0
2017-Sep-14 07:30N 37°58' E 023°33'4 7.9
2017-Sep-14 07:00N 38°01' E 023°32'1 2.2
2017-Sep-14 06:30N 38°02' E 023°31'0 0.0
2017-Sep-14 06:00N 38°02' E 023°31'0 0.0
2017-Sep-14 05:30N 38°02' E 023°31'0 0.7
2017-Sep-14 05:00N 38°02' E 023°30'4 9.0
2017-Sep-14 04:30N 37°58' E 023°33'1 1.5
2017-Sep-14 04:00N 37°58' E 023°34'0 0.0
2017-Sep-14 03:30N 37°58' E 023°34'0 0.0
2017-Sep-14 03:00N 37°58' E 023°34'0 0.0
2017-Sep-13 16:03N 37°58' E 023°34'0 0.1
2017-Sep-13 16:00N 37°58' E 023°34'2 3.5
2017-Sep-13 15:30N 37°57' E 023°36'1 1.9
2017-Sep-13 15:01N 37°56' E 023°36'2 4.3
2017-Sep-13 14:30N 37°58' E 023°34'0 0.0
2017-Sep-13 14:00N 37°58' E 023°34'0 0.0
2017-Sep-13 13:31N 37°58' E 023°34'1 2.8
2017-Sep-13 13:01N 37°57' E 023°35'0 0.4
2017-Sep-13 12:30N 37°57' E 023°36'1 1.9
2017-Sep-13 12:01N 37°56' E 023°36'2 3.4
2017-Sep-13 11:31N 37°57' E 023°35'1 1.3
2017-Sep-13 10:59N 37°58' E 023°34'0 0.0
2017-Sep-13 10:30N 37°58' E 023°34'0 0.0
2017-Sep-13 10:00N 37°58' E 023°34'0 0.0
2017-Sep-13 09:30N 37°58' E 023°34'0 0.0
2017-Sep-13 09:00N 37°58' E 023°34'0 0.0
2017-Sep-13 08:31N 37°58' E 023°34'0 0.0
2017-Sep-13 08:00N 37°58' E 023°34'0 0.0
2017-Sep-13 07:31N 37°58' E 023°34'0 0.0
2017-Sep-13 07:01N 37°58' E 023°34'0 0.0
2017-Sep-13 06:31N 37°58' E 023°34'0 0.0
2017-Sep-13 06:00N 37°58' E 023°34'0 0.0
2017-Sep-13 05:31N 37°58' E 023°34'0 0.0
2017-Sep-13 05:00N 37°58' E 023°34'0 0.0
2017-Sep-13 04:22N 37°58' E 023°34'0 0.0
2017-Sep-13 03:59N 37°58' E 023°34'0 0.0
2017-Sep-13 03:30N 37°58' E 023°34'0 0.0
2017-Sep-13 03:01N 37°58' E 023°34'0 0.0
2017-Sep-11 19:03N 37°58' E 023°34'0 0.0
2017-Sep-11 19:00N 37°58' E 023°34'3 5.4
2017-Sep-11 18:31N 38°00' E 023°33'2 4.8
2017-Sep-11 18:00N 38°02' E 023°31'1 2.3
2017-Sep-11 17:31N 38°01' E 023°31'1 2.8
2017-Sep-11 17:01N 38°02' E 023°31'4 7.7
2017-Sep-11 16:30N 37°59' E 023°33'1 0.1
2017-Sep-10 16:39N 37°58' E 023°34'1 3.5
2017-Sep-10 16:30N 37°57' E 023°34'0 0.6
2017-Sep-10 16:00N 37°57' E 023°35'0 0.0
2017-Sep-10 15:31N 37°57' E 023°35'0 0.0
2017-Sep-10 15:00N 37°57' E 023°35'0 0.0
2017-Sep-10 14:01N 37°57' E 023°35'0 0.0
2017-Sep-10 13:30N 37°57' E 023°35'0 0.0
2017-Sep-10 13:00N 37°57' E 023°35'0 0.0
2017-Sep-10 12:30N 37°57' E 023°35'0 0.0
2017-Sep-10 12:01N 37°57' E 023°35'0 0.0
2017-Sep-10 11:31N 37°57' E 023°35'0 0.0
2017-Sep-10 11:00N 37°57' E 023°35'0 0.0
2017-Sep-10 10:30N 37°57' E 023°35'0 0.0
2017-Sep-10 10:01N 37°57' E 023°35'0 0.0
2017-Sep-10 09:31N 37°57' E 023°35'1 1.6
2017-Sep-10 09:00N 37°58' E 023°34'0 0.5
2017-Sep-10 08:31N 37°57' E 023°34'3 5.5
2017-Sep-10 08:00N 38°00' E 023°33'2 4.7
2017-Sep-10 07:30N 38°02' E 023°36'0 0.4
2017-Sep-10 07:00N 38°01' E 023°35'0 0.0
2017-Sep-10 06:30N 38°01' E 023°35'0 0.0
2017-Sep-10 06:00N 38°01' E 023°35'0 0.0
2017-Sep-10 05:31N 38°01' E 023°35'2 4.5
2017-Sep-10 05:00N 38°00' E 023°33'2 5.0
2017-Sep-10 04:31N 37°58' E 023°34'0 0.0
2017-Sep-10 04:00N 37°58' E 023°34'  
Track history (hours):
 
Tides and Currents Weather Stations Pressure Air Temp Water Temp Dewpoint Dewpoint Depression Visibility Wind Speed Wind Dir Waves Ship Positions

Christos Xxvii

Last reported at 2017-Sep-19 15:54 UTC. Time now 2017-Sep-20 00:26 UTC.
Position N 37°57' E 023°34'.

Length 35 m; draft 4 m.

Type: Tug. MMSI: 237194900.

Date/timePositionNaut miles runAvg speedWind from/ knotsBaromVisibWave heightAir tempDewpointWater temp
2017-Sep-19 15:54N 37°57' E 023°34'3 8.6
2017-Sep-19 15:30N 37°56' E 023°38'0 0.3
2017-Sep-19 15:01N 37°56' E 023°38'0 0.1
2017-Sep-19 14:31N 37°56' E 023°38'0 0.0
2017-Sep-19 14:01N 37°56' E 023°38'0 0.0
2017-Sep-19 13:30N 37°56' E 023°38'0 0.0
2017-Sep-19 13:01N 37°56' E 023°38'2 4.9
2017-Sep-19 12:31N 37°57' E 023°35'2 3.5
2017-Sep-19 12:01N 37°56' E 023°37'2 3.2
2017-Sep-19 11:31N 37°57' E 023°35'1 2.5
2017-Sep-19 11:01N 37°57' E 023°34'2 3.6
2017-Sep-19 10:31N 37°59' E 023°33'3 6.1
2017-Sep-19 10:00N 38°01' E 023°36'1 1.3
2017-Sep-19 09:31N 38°01' E 023°35'3 6.2
2017-Sep-19 09:01N 37°58' E 023°33'1 2.4
2017-Sep-19 08:31N 37°57' E 023°34'0 0.0
2017-Sep-19 08:01N 37°57' E 023°34'0 0.0
2017-Sep-19 07:31N 37°57' E 023°34'0 0.0
2017-Sep-19 07:01N 37°57' E 023°34'0 0.0
2017-Sep-19 06:30N 37°57' E 023°34'0 0.0
2017-Sep-19 06:01N 37°57' E 023°34'0 0.0
2017-Sep-19 05:30N 37°57' E 023°34'0 0.0
2017-Sep-19 05:01N 37°57' E 023°34'0 0.0
2017-Sep-19 04:31N 37°57' E 023°34'0 0.0
2017-Sep-19 04:00N 37°57' E 023°34'0 0.0
2017-Sep-18 18:41N 37°57' E 023°34'1 3.0
2017-Sep-18 18:31N 37°58' E 023°33'4 8.8
2017-Sep-18 18:00N 38°02' E 023°36'0 0.1
2017-Sep-18 17:30N 38°02' E 023°36'0 0.5
2017-Sep-18 17:01N 38°02' E 023°35'1 2.0
2017-Sep-18 16:30N 38°01' E 023°34'3 7.0
2017-Sep-18 16:01N 37°58' E 023°33'1 1.3
2017-Sep-18 15:31N 37°57' E 023°34'0 0.0
2017-Sep-18 15:01N 37°57' E 023°34'0 0.0
2017-Sep-18 14:30N 37°57' E 023°34'0 0.0
2017-Sep-18 14:01N 37°57' E 023°34'0 0.0
2017-Sep-18 13:30N 37°57' E 023°34'0 0.0
2017-Sep-18 13:00N 37°57' E 023°34'0 0.0
2017-Sep-18 12:30N 37°57' E 023°34'0 0.0
2017-Sep-18 12:01N 37°57' E 023°34'0 0.0
2017-Sep-18 11:31N 37°57' E 023°34'3 6.9
2017-Sep-18 11:01N 37°56' E 023°38'1 2.1
2017-Sep-18 10:31N 37°56' E 023°37'0 0.3
2017-Sep-18 10:01N 37°57' E 023°36'2 4.6
2017-Sep-18 09:31N 37°57' E 023°34'0 0.0
2017-Sep-18 09:00N 37°57' E 023°34'0 0.0
2017-Sep-18 08:31N 37°57' E 023°34'0 0.0
2017-Sep-18 08:01N 37°57' E 023°34'0 0.0
2017-Sep-18 07:30N 37°57' E 023°34'1 2.8
2017-Sep-18 07:01N 37°56' E 023°35'1 1.9
2017-Sep-18 06:30N 37°57' E 023°34'1 1.4
2017-Sep-18 06:01N 37°57' E 023°33'0 0.0
2017-Sep-18 05:31N 37°57' E 023°33'0 0.0
2017-Sep-18 05:01N 37°57' E 023°33'1 1.2
2017-Sep-18 04:30N 37°57' E 023°34'0 0.0
2017-Sep-18 04:00N 37°57' E 023°34'  
2017-Sep-15 21:22N 37°57' E 023°34'1 2.4
2017-Sep-15 21:00N 37°57' E 023°35'1 2.5
2017-Sep-15 20:30N 37°56' E 023°35'0 0.9
2017-Sep-15 20:00N 37°56' E 023°35'0 0.3
2017-Sep-15 19:30N 37°56' E 023°34'0 0.4
2017-Sep-15 19:00N 37°56' E 023°35'2 3.6
2017-Sep-15 18:30N 37°57' E 023°34'0 0.0
2017-Sep-15 18:00N 37°57' E 023°34'0 0.0
2017-Sep-15 17:30N 37°57' E 023°34'0 0.0
2017-Sep-15 17:00N 37°57' E 023°34'0 0.0
2017-Sep-15 16:30N 37°57' E 023°34'0 0.0
2017-Sep-15 16:00N 37°57' E 023°34'0 0.0
2017-Sep-15 15:30N 37°57' E 023°34'0 0.0
2017-Sep-15 15:00N 37°57' E 023°34'0 0.0
2017-Sep-15 14:30N 37°57' E 023°34'0 0.0
2017-Sep-15 14:00N 37°57' E 023°34'0 0.0
2017-Sep-15 13:30N 37°57' E 023°34'0 0.0
2017-Sep-15 13:00N 37°57' E 023°34'0 0.0
2017-Sep-15 12:30N 37°57' E 023°34'0 0.0
2017-Sep-15 12:00N 37°57' E 023°34'0 0.0
2017-Sep-15 11:30N 37°57' E 023°34'0 0.3
2017-Sep-15 11:00N 37°57' E 023°34'4 8.6
2017-Sep-15 10:30N 38°01' E 023°35'0 0.1
2017-Sep-15 10:00N 38°01' E 023°35'4 8.4
2017-Sep-15 09:30N 37°57' E 023°34'0 0.1
2017-Sep-15 09:00N 37°57' E 023°34'0 0.0
2017-Sep-15 08:30N 37°57' E 023°34'0 0.0
2017-Sep-15 08:00N 37°57' E 023°34'0 0.0
2017-Sep-15 07:30N 37°57' E 023°34'0 0.0
2017-Sep-15 07:00N 37°57' E 023°34'0 0.0
2017-Sep-15 06:30N 37°57' E 023°34'0 0.0
2017-Sep-15 06:00N 37°57' E 023°34'0 0.0
2017-Sep-15 05:30N 37°57' E 023°34'0 0.0
2017-Sep-15 05:00N 37°57' E 023°34'0 0.0
2017-Sep-15 04:30N 37°57' E 023°34'0 0.0
2017-Sep-15 04:00N 37°57' E 023°34'0 0.0
2017-Sep-14 17:36N 37°57' E 023°34'0 0.0
2017-Sep-14 17:30N 37°57' E 023°34'3 6.3
2017-Sep-14 17:00N 37°56' E 023°37'0 0.1
2017-Sep-14 16:30N 37°56' E 023°37'0 0.0
2017-Sep-14 16:00N 37°56' E 023°37'3 6.4
2017-Sep-14 15:30N 37°57' E 023°34'0 0.0
2017-Sep-14 15:00N 37°57' E 023°34'0 0.0
2017-Sep-14 14:30N 37°57' E 023°34'0 0.0
2017-Sep-14 14:00N 37°57' E 023°34'0 0.0
2017-Sep-14 13:30N 37°57' E 023°34'0 0.0
2017-Sep-14 13:00N 37°57' E 023°34'0 0.0
2017-Sep-14 12:30N 37°57' E 023°34'510.1
2017-Sep-14 12:00N 38°02' E 023°31'1 1.6
2017-Sep-14 11:30N 38°01' E 023°31'4 8.6
2017-Sep-14 11:00N 37°57' E 023°34'0 0.0
2017-Sep-14 10:30N 37°57' E 023°34'0 0.0
2017-Sep-14 10:00N 37°57' E 023°34'0 0.0
2017-Sep-14 09:30N 37°57' E 023°34'0 0.0
2017-Sep-14 09:00N 37°57' E 023°34'0 0.0
2017-Sep-14 08:30N 37°57' E 023°34'0 0.0
2017-Sep-14 08:00N 37°57' E 023°34'0 1.0
2017-Sep-14 07:30N 37°58' E 023°33'4 7.9
2017-Sep-14 07:00N 38°01' E 023°32'1 2.2
2017-Sep-14 06:30N 38°02' E 023°31'0 0.0
2017-Sep-14 06:00N 38°02' E 023°31'0 0.0
2017-Sep-14 05:30N 38°02' E 023°31'0 0.7
2017-Sep-14 05:00N 38°02' E 023°30'4 9.0
2017-Sep-14 04:30N 37°58' E 023°33'1 1.5
2017-Sep-14 04:00N 37°58' E 023°34'0 0.0
2017-Sep-14 03:30N 37°58' E 023°34'0 0.0
2017-Sep-14 03:00N 37°58' E 023°34'0 0.0
2017-Sep-13 16:03N 37°58' E 023°34'0 0.1
2017-Sep-13 16:00N 37°58' E 023°34'2 3.5
2017-Sep-13 15:30N 37°57' E 023°36'1 1.9
2017-Sep-13 15:01N 37°56' E 023°36'2 4.3
2017-Sep-13 14:30N 37°58' E 023°34'0 0.0
2017-Sep-13 14:00N 37°58' E 023°34'0 0.0
2017-Sep-13 13:31N 37°58' E 023°34'1 2.8
2017-Sep-13 13:01N 37°57' E 023°35'0 0.4
2017-Sep-13 12:30N 37°57' E 023°36'1 1.9
2017-Sep-13 12:01N 37°56' E 023°36'2 3.4
2017-Sep-13 11:31N 37°57' E 023°35'1 1.3
2017-Sep-13 10:59N 37°58' E 023°34'0 0.0
2017-Sep-13 10:30N 37°58' E 023°34'0 0.0
2017-Sep-13 10:00N 37°58' E 023°34'0 0.0
2017-Sep-13 09:30N 37°58' E 023°34'0 0.0
2017-Sep-13 09:00N 37°58' E 023°34'0 0.0
2017-Sep-13 08:31N 37°58' E 023°34'0 0.0
2017-Sep-13 08:00N 37°58' E 023°34'0 0.0
2017-Sep-13 07:31N 37°58' E 023°34'0 0.0
2017-Sep-13 07:01N 37°58' E 023°34'0 0.0
2017-Sep-13 06:31N 37°58' E 023°34'0 0.0
2017-Sep-13 06:00N 37°58' E 023°34'0 0.0
2017-Sep-13 05:31N 37°58' E 023°34'0 0.0
2017-Sep-13 05:00N 37°58' E 023°34'0 0.0
2017-Sep-13 04:22N 37°58' E 023°34'0 0.0
2017-Sep-13 03:59N 37°58' E 023°34'0 0.0
2017-Sep-13 03:30N 37°58' E 023°34'0 0.0
2017-Sep-13 03:01N 37°58' E 023°34'0 0.0
2017-Sep-11 19:03N 37°58' E 023°34'0 0.0
2017-Sep-11 19:00N 37°58' E 023°34'3 5.4
2017-Sep-11 18:31N 38°00' E 023°33'2 4.8
2017-Sep-11 18:00N 38°02' E 023°31'1 2.3
2017-Sep-11 17:31N 38°01' E 023°31'1 2.8
2017-Sep-11 17:01N 38°02' E 023°31'4 7.7
2017-Sep-11 16:30N 37°59' E 023°33'1 0.1
2017-Sep-10 16:39N 37°58' E 023°34'1 3.5
2017-Sep-10 16:30N 37°57' E 023°34'0 0.6
2017-Sep-10 16:00N 37°57' E 023°35'0 0.0
2017-Sep-10 15:31N 37°57' E 023°35'0 0.0
2017-Sep-10 15:00N 37°57' E 023°35'0 0.0
2017-Sep-10 14:01N 37°57' E 023°35'0 0.0
2017-Sep-10 13:30N 37°57' E 023°35'0 0.0
2017-Sep-10 13:00N 37°57' E 023°35'0 0.0
2017-Sep-10 12:30N 37°57' E 023°35'0 0.0
2017-Sep-10 12:01N 37°57' E 023°35'0 0.0
2017-Sep-10 11:31N 37°57' E 023°35'0 0.0
2017-Sep-10 11:00N 37°57' E 023°35'0 0.0
2017-Sep-10 10:30N 37°57' E 023°35'0 0.0
2017-Sep-10 10:01N 37°57' E 023°35'0 0.0
2017-Sep-10 09:31N 37°57' E 023°35'1 1.6
2017-Sep-10 09:00N 37°58' E 023°34'0 0.5
2017-Sep-10 08:31N 37°57' E 023°34'3 5.5
2017-Sep-10 08:00N 38°00' E 023°33'2 4.7
2017-Sep-10 07:30N 38°02' E 023°36'0 0.4
2017-Sep-10 07:00N 38°01' E 023°35'0 0.0
2017-Sep-10 06:30N 38°01' E 023°35'0 0.0
2017-Sep-10 06:00N 38°01' E 023°35'0 0.0
2017-Sep-10 05:31N 38°01' E 023°35'2 4.5
2017-Sep-10 05:00N 38°00' E 023°33'2 5.0
2017-Sep-10 04:31N 37°58' E 023°34'0 0.0
2017-Sep-10 04:00N 37°58' E 023°34'  

Dump ship's entire track history